NCAR-RAP Real-Time Weather Data

Output produced by METARs form (17 December 2018  06:53 UTC)
found at http://weather.rap.ucar.edu/surface/
 
RJEC 170600Z 08003KT 9000 -SHSN FEW009 SCT018 BKN025 M00/M01 Q1003
RJEC 170543Z VRB02KT 5000 -SHSN FEW009 SCT018 BKN030 00/M01 Q1003 RMK 2ST009 3ST018 6CU030 A2963
RJEC 170500Z VRB02KT 4500 -SHSN FEW004 SCT009 BKN018 00/M01 Q1003
RJEC 170433Z 03003KT 350V060 3200 R34/1200VP2000U -SHSN FEW004 SCT008 BKN015 00/M01 Q1003 RMK 1ST004 4ST008 7ST015 A2963
RJEC 170400Z VRB02KT 2500 -SHSN FEW003 SCT007 BKN010 00/M01 Q1003
RJEC 170348Z VRB02KT 3100 -SHSN FEW003 SCT007 BKN010 00/M01 Q1003 RMK 1ST003 3ST007 7ST010 A2964
RJEC 170300Z 36003KT 320V050 3200 -SHSN FEW003 SCT008 BKN012 00/M01 Q1004
RJEC 170250Z 35004KT 2400 R34/2000N -SHSN FEW003 SCT007 BKN010 M00/M01 Q1004 RMK 1ST003 3ST007 6ST010 A2965
RJEC 170245Z 35004KT 1600 R34/2000N -SHSN FEW003 SCT006 BKN010 M00/M01 Q1004 RMK 2ST003 4ST006 7ST010 A2965
RJEC 170234Z 35003KT 1500 R34/1400VP2000D -SHSN FEW003 SCT006 BKN010 00/M01 Q1004 RMK 2ST003 4ST006 7ST010 A2966
RJEC 170227Z 35003KT 2300 -SHSN FEW003 SCT006 BKN010 00/M01 Q1004 RMK 1ST003 3ST006 6ST010 A2966
RJEC 170213Z 35003KT 3100 -SHSN FEW003 SCT009 BKN020 00/M01 Q1004 RMK 1ST003 3ST009 6CU020 A2966
RJEC 170208Z 34003KT 4900 -SHSN FEW003 SCT010 BKN020 00/M01 Q1004 RMK 1ST003 3ST010 6CU020 A2966
RJEC 170200Z 34005KT 7000 -SHSN FEW005 SCT012 BKN020 00/M01 Q1004
RJEC 170100Z 30004KT 7000 -SHSN FEW005 SCT012 BKN020 01/M01 Q1005
RJEC 170000Z 32004KT 8000 -SHSN FEW005 SCT012 BKN025 00/M01 Q1005
RJEC 162300Z 00000KT 8000 -SHSN FEW005 SCT010 BKN020 00/00 Q1005
RJEC 162207Z VRB01KT 5000 -SHSN FEW003 SCT010 BKN025 00/00 Q1004 RMK 1ST003 3ST010 6CU025 A2966
RJEC 162200Z 00000KT 3200 -SHSN FEW003 SCT008 BKN015 01/00 Q1004
RJEC 162150Z VRB01KT 2400 -SHSNRA FEW003 SCT007 BKN012 00/00 Q1004 RMK 1ST003 3ST007 6ST012 A2966
RJEC 162146Z VRB01KT 2300 -SHSNRA FEW003 SCT007 BKN012 00/00 Q1004 RMK 1ST003 3ST007 6ST012 A2966
RJEC 162143Z VRB02KT 3100 -SHSNRA FEW003 SCT008 BKN015 00/00 Q1004 RMK 1ST003 3ST008 6ST015 A2966
RJEC 162140Z VRB02KT 3500 -SHSNRA FEW003 SCT008 BKN015 00/00 Q1004 RMK 1ST003 3ST008 6ST015 A2966
RJEC 161100Z 19008KT 160V220 9999 FEW015 SCT040 BKN100 02/M01 Q1009
RJEC 161000Z 19015KT 9999 FEW015 SCT035 BKN110 02/M01 Q1010
RJEC 160900Z 18017KT 9999 FEW015 SCT030 BKN070 02/M02 Q1011
RJEC 160800Z 18016KT 9999 -SHSN FEW015 SCT035 BKN080 02/M02 Q1012
RJEC 160700Z 18012KT 9999 FEW020 SCT040 BKN110 02/M02 Q1012
RJEC 160600Z 16012KT 9999 FEW030 SCT050 BKN150 01/M03 Q1013
RJEC 160500Z 17010KT 9999 FEW030 SCT050 BKN170 02/M03 Q1013
RJEC 160400Z 18013KT 9999 -SHSN FEW020 SCT030 BKN080 02/M03 Q1014
RJEC 160300Z 18017KT 9999 VCSH FEW015 SCT030 BKN050 01/M03 Q1014
RJEC 160200Z 18014KT 9999 VCSH FEW020 SCT040 BKN050 01/M04 Q1016
RJEC 160100Z 16016KT 9999 -SHSN FEW015 SCT025 BKN060 M00/M04 Q1017
RJEC 160000Z 17015KT 8000 -SHSN FEW015 SCT035 BKN050 M01/M04 Q1017
RJEC 151100Z 16008KT 9999 -SHSN FEW015 BKN040 M05/M07 Q1021
RJEC 151000Z 17006KT 9999 FEW015 SCT040 M08/M10 Q1021
RJEC 150900Z 17008KT 9999 FEW020 SCT050 M08/M09 Q1021
RJEC 150800Z 18006KT 9999 FEW020 BKN050 M07/M09 Q1021
RJEC 150700Z 18003KT 9999 FEW020 BKN050 M09/M11 Q1020
RJEC 150600Z 24005KT 9999 VCSH FEW015 SCT050 M03/M08 Q1020
RJEC 150500Z 17006KT 130V220 9999 -SHSN FEW015 SCT025 BKN035 M03/M08 Q1020
RJEC 150400Z 16007KT 9999 -SHSN FEW015 SCT025 BKN035 M03/M07 Q1020
RJEC 150300Z 16008KT 9999 -SHSN FEW015 SCT025 BKN035 M03/M07 Q1020
RJEC 150200Z 16009KT 9999 FEW015 SCT050 M04/M08 Q1021
RJEC 150100Z 15008KT 9999 FEW015 SCT025 BKN050 M06/M08 Q1021
RJEC 150039Z 16007KT 5000 -SHSN FEW015 SCT025 BKN035 M06/M08 Q1022 RMK 1ST015 3CU025 5CU035 A3018
RJEC 150031Z 17007KT 3200 -SHSN FEW010 SCT015 BKN030 M06/M08 Q1022 RMK 1ST010 3ST015 5CU030 A3018
RJEC 150028Z 17007KT 2400 R34/1500VP2000U -SHSN FEW010 SCT015 BKN030 M06/M08 Q1022 RMK 1ST010 3ST015 5CU030 A3018
RJEC 150023Z 17007KT 2300 R34/1500VP2000D -SHSN FEW010 SCT015 BKN020 M06/M08 Q1022 RMK 1ST010 3ST015 5CU020 A3018
RJEC 150019Z 17007KT 3100 R34/2000N -SHSN FEW010 SCT015 BKN020 M06/M08 Q1022 RMK 1ST010 3ST015 5CU020 A3018
RJEC 150000Z 17007KT 4900 R34/2000N -SHSN FEW010 SCT020 BKN030 M06/M08 Q1021
RJEC 142300Z 18008KT 9999 FEW020 SCT040 M08/M10 Q1021
RJEC 142200Z 17007KT 9999 -SHSN FEW010 SCT025 BKN040 M07/M09 Q1021
RJEC 142140Z 17008KT 9999 -SHSN FEW010 SCT025 BKN040 M07/M09 Q1021 RMK 1ST010 3CU025 6CU040 A3015